sensor_id;sensor_type;location;lat;lon;timestamp;pressure;altitude;pressure_sealevel;temperature;humidity
68628;BME280;55611;48.602;9.490;2024-03-02T00:01:04;95730;;;10.5;60.5
68628;BME280;55611;48.602;9.490;2024-03-02T00:03:37;95730;;;10.5;60.5
68628;BME280;55611;48.602;9.490;2024-03-02T00:06:06;95730;;;10.5;60.5
68628;BME280;55611;48.602;9.490;2024-03-02T00:08:37;95730;;;10.5;60.5
68628;BME280;55611;48.602;9.490;2024-03-02T00:11:07;95730;;;10.5;60.5
68628;BME280;55611;48.602;9.490;2024-03-02T00:13:38;95720;;;10.5;60.5
68628;BME280;55611;48.602;9.490;2024-03-02T00:16:09;95730;;;10.5;60.5
68628;BME280;55611;48.602;9.490;2024-03-02T00:18:40;95740;;;10.6;60.5
68628;BME280;55611;48.602;9.490;2024-03-02T00:21:11;95750;;;10.5;60.5
68628;BME280;55611;48.602;9.490;2024-03-02T00:23:41;95750;;;10.5;60.5
68628;BME280;55611;48.602;9.490;2024-03-02T00:28:43;95750;;;10.5;60.5
68628;BME280;55611;48.602;9.490;2024-03-02T00:31:14;95760;;;10.5;60.5
68628;BME280;55611;48.602;9.490;2024-03-02T00:33:45;95760;;;10.5;60.5
68628;BME280;55611;48.602;9.490;2024-03-02T00:36:16;95770;;;10.6;60.5
68628;BME280;55611;48.602;9.490;2024-03-02T00:38:47;95780;;;10.6;60.5
68628;BME280;55611;48.602;9.490;2024-03-02T00:41:27;95780;;;10.6;60.5
68628;BME280;55611;48.602;9.490;2024-03-02T00:44:03;95780;;;10.7;60
68628;BME280;55611;48.602;9.490;2024-03-02T00:46:19;95770;;;10.7;60
68628;BME280;55611;48.602;9.490;2024-03-02T00:48:51;95770;;;10.6;60
68628;BME280;55611;48.602;9.490;2024-03-02T00:51:20;95770;;;10.5;60
68628;BME280;55611;48.602;9.490;2024-03-02T00:53:51;95780;;;10.5;60
68628;BME280;55611;48.602;9.490;2024-03-02T00:56:22;95780;;;10.5;60
68628;BME280;55611;48.602;9.490;2024-03-02T00:58:52;95770;;;10.5;60
68628;BME280;55611;48.602;9.490;2024-03-02T01:01:23;95770;;;10.5;60
68628;BME280;55611;48.602;9.490;2024-03-02T01:03:54;95770;;;10.5;60
68628;BME280;55611;48.602;9.490;2024-03-02T01:06:25;95760;;;10.5;60
68628;BME280;55611;48.602;9.490;2024-03-02T01:08:55;95760;;;10.5;60
68628;BME280;55611;48.602;9.490;2024-03-02T01:11:26;95760;;;10.5;60
68628;BME280;55611;48.602;9.490;2024-03-02T01:13:57;95760;;;10.5;60
68628;BME280;55611;48.602;9.490;2024-03-02T01:16:28;95750;;;10.5;60
68628;BME280;55611;48.602;9.490;2024-03-02T01:18:58;95750;;;10.5;60
68628;BME280;55611;48.602;9.490;2024-03-02T01:21:29;95760;;;10.5;60
68628;BME280;55611;48.602;9.490;2024-03-02T01:24:00;95760;;;10.5;60
68628;BME280;55611;48.602;9.490;2024-03-02T01:26:31;95760;;;10.6;60
68628;BME280;55611;48.602;9.490;2024-03-02T01:29:01;95760;;;10.6;60
68628;BME280;55611;48.602;9.490;2024-03-02T01:31:32;95760;;;10.6;60
68628;BME280;55611;48.602;9.490;2024-03-02T01:34:03;95760;;;10.6;60
68628;BME280;55611;48.602;9.490;2024-03-02T01:36:34;95750;;;10.7;60
68628;BME280;55611;48.602;9.490;2024-03-02T01:39:05;95750;;;10.7;60
68628;BME280;55611;48.602;9.490;2024-03-02T01:41:35;95750;;;10.7;60
68628;BME280;55611;48.602;9.490;2024-03-02T01:44:06;95750;;;10.7;60
68628;BME280;55611;48.602;9.490;2024-03-02T01:46:37;95740;;;10.7;60
68628;BME280;55611;48.602;9.490;2024-03-02T01:49:08;95740;;;10.6;60
68628;BME280;55611;48.602;9.490;2024-03-02T01:51:38;95740;;;10.7;60
68628;BME280;55611;48.602;9.490;2024-03-02T01:54:09;95740;;;10.7;60
68628;BME280;55611;48.602;9.490;2024-03-02T01:56:40;95740;;;10.7;60
68628;BME280;55611;48.602;9.490;2024-03-02T01:59:11;95740;;;10.7;60
68628;BME280;55611;48.602;9.490;2024-03-02T02:01:42;95740;;;10.7;60
68628;BME280;55611;48.602;9.490;2024-03-02T02:04:12;95740;;;10.7;60
68628;BME280;55611;48.602;9.490;2024-03-02T02:06:44;95740;;;10.7;60
68628;BME280;55611;48.602;9.490;2024-03-02T02:09:14;95740;;;10.7;60
68628;BME280;55611;48.602;9.490;2024-03-02T02:11:45;95730;;;10.7;60.5
68628;BME280;55611;48.602;9.490;2024-03-02T02:14:15;95730;;;10.7;60.5
68628;BME280;55611;48.602;9.490;2024-03-02T02:16:46;95730;;;10.7;60.5
68628;BME280;55611;48.602;9.490;2024-03-02T02:19:17;95730;;;10.7;60.5
68628;BME280;55611;48.602;9.490;2024-03-02T02:21:48;95720;;;10.7;60
68628;BME280;55611;48.602;9.490;2024-03-02T02:24:19;95720;;;10.6;60
68628;BME280;55611;48.602;9.490;2024-03-02T02:26:49;95720;;;10.6;60
68628;BME280;55611;48.602;9.490;2024-03-02T02:31:51;95720;;;10.6;60
68628;BME280;55611;48.602;9.490;2024-03-02T02:34:22;95720;;;10.6;60
68628;BME280;55611;48.602;9.490;2024-03-02T02:36:52;95700;;;10.6;60
68628;BME280;55611;48.602;9.490;2024-03-02T02:39:23;95710;;;10.6;60
68628;BME280;55611;48.602;9.490;2024-03-02T02:41:54;95710;;;10.6;60.5
68628;BME280;55611;48.602;9.490;2024-03-02T02:44:25;95710;;;10.6;60.5
68628;BME280;55611;48.602;9.490;2024-03-02T02:46:55;95710;;;10.7;60.5
68628;BME280;55611;48.602;9.490;2024-03-02T02:49:26;95700;;;10.8;60.5
68628;BME280;55611;48.602;9.490;2024-03-02T02:51:57;95700;;;10.8;60.5
68628;BME280;55611;48.602;9.490;2024-03-02T02:54:28;95700;;;10.8;60.5
68628;BME280;55611;48.602;9.490;2024-03-02T02:56:59;95700;;;10.9;60.5
68628;BME280;55611;48.602;9.490;2024-03-02T02:59:29;95700;;;10.8;60.5
68628;BME280;55611;48.602;9.490;2024-03-02T03:02:00;95700;;;10.8;60.5
68628;BME280;55611;48.602;9.490;2024-03-02T03:04:31;95700;;;10.9;60.5
68628;BME280;55611;48.602;9.490;2024-03-02T03:07:02;95700;;;10.9;60.5
68628;BME280;55611;48.602;9.490;2024-03-02T03:09:32;95700;;;10.9;60.5
68628;BME280;55611;48.602;9.490;2024-03-02T03:12:03;95690;;;10.9;60.5
68628;BME280;55611;48.602;9.490;2024-03-02T03:14:34;95690;;;10.9;60.5
68628;BME280;55611;48.602;9.490;2024-03-02T03:17:05;95690;;;10.9;60.5
68628;BME280;55611;48.602;9.490;2024-03-02T03:19:37;95690;;;10.8;60.5
68628;BME280;55611;48.602;9.490;2024-03-02T03:22:06;95690;;;10.9;60.5
68628;BME280;55611;48.602;9.490;2024-03-02T03:24:37;95690;;;10.8;60.5
68628;BME280;55611;48.602;9.490;2024-03-02T03:27:08;95690;;;10.8;60.5
68628;BME280;55611;48.602;9.490;2024-03-02T03:29:39;95690;;;10.8;60.5
68628;BME280;55611;48.602;9.490;2024-03-02T03:32:09;95690;;;10.8;60.5
68628;BME280;55611;48.602;9.490;2024-03-02T03:34:40;95700;;;10.8;60.5
68628;BME280;55611;48.602;9.490;2024-03-02T03:37:11;95700;;;10.8;60.5
68628;BME280;55611;48.602;9.490;2024-03-02T03:42:13;95700;;;10.8;60.5
68628;BME280;55611;48.602;9.490;2024-03-02T03:44:43;95690;;;10.8;60.5
68628;BME280;55611;48.602;9.490;2024-03-02T03:47:14;95700;;;10.8;60.5
68628;BME280;55611;48.602;9.490;2024-03-02T03:49:45;95700;;;10.7;60.5
68628;BME280;55611;48.602;9.490;2024-03-02T03:52:16;95700;;;10.8;60.5
68628;BME280;55611;48.602;9.490;2024-03-02T03:54:46;95710;;;10.7;60.5
68628;BME280;55611;48.602;9.490;2024-03-02T03:57:17;95710;;;10.7;60.5
68628;BME280;55611;48.602;9.490;2024-03-02T03:59:48;95710;;;10.7;60.5
68628;BME280;55611;48.602;9.490;2024-03-02T04:02:19;95710;;;10.7;60.5
68628;BME280;55611;48.602;9.490;2024-03-02T04:04:50;95710;;;10.7;60.5
68628;BME280;55611;48.602;9.490;2024-03-02T04:07:20;95710;;;10.7;60.5
68628;BME280;55611;48.602;9.490;2024-03-02T04:09:51;95700;;;10.7;60.5
68628;BME280;55611;48.602;9.490;2024-03-02T04:12:22;95700;;;10.6;60.5
68628;BME280;55611;48.602;9.490;2024-03-02T04:14:53;95710;;;10.7;60.5
68628;BME280;55611;48.602;9.490;2024-03-02T04:17:24;95710;;;10.7;60.5
68628;BME280;55611;48.602;9.490;2024-03-02T04:19:54;95710;;;10.7;60.5
68628;BME280;55611;48.602;9.490;2024-03-02T04:22:25;95710;;;10.6;60.5
68628;BME280;55611;48.602;9.490;2024-03-02T04:24:56;95710;;;10.6;60.5
68628;BME280;55611;48.602;9.490;2024-03-02T04:27:27;95710;;;10.6;60.5
68628;BME280;55611;48.602;9.490;2024-03-02T04:29:57;95700;;;10.6;60.5
68628;BME280;55611;48.602;9.490;2024-03-02T04:32:28;95700;;;10.6;60.5
68628;BME280;55611;48.602;9.490;2024-03-02T04:34:59;95710;;;10.6;60.5
68628;BME280;55611;48.602;9.490;2024-03-02T04:37:30;95710;;;10.6;60.5
68628;BME280;55611;48.602;9.490;2024-03-02T04:40:00;95710;;;10.6;60.5
68628;BME280;55611;48.602;9.490;2024-03-02T04:42:31;95710;;;10.6;60.5
68628;BME280;55611;48.602;9.490;2024-03-02T04:45:02;95710;;;10.5;60.5
68628;BME280;55611;48.602;9.490;2024-03-02T04:47:33;95710;;;10.5;60.5
68628;BME280;55611;48.602;9.490;2024-03-02T04:50:04;95710;;;10.5;60
68628;BME280;55611;48.602;9.490;2024-03-02T04:52:34;95710;;;10.5;60
68628;BME280;55611;48.602;9.490;2024-03-02T04:55:05;95720;;;10.4;60
68628;BME280;55611;48.602;9.490;2024-03-02T04:57:36;95720;;;10.4;60
68628;BME280;55611;48.602;9.490;2024-03-02T05:00:07;95720;;;10.4;60
68628;BME280;55611;48.602;9.490;2024-03-02T05:02:37;95720;;;10.4;60
68628;BME280;55611;48.602;9.490;2024-03-02T05:05:08;95720;;;10.4;60
68628;BME280;55611;48.602;9.490;2024-03-02T05:07:39;95730;;;10.4;60
68628;BME280;55611;48.602;9.490;2024-03-02T05:10:10;95720;;;10.4;60
68628;BME280;55611;48.602;9.490;2024-03-02T05:12:41;95720;;;10.3;60
68628;BME280;55611;48.602;9.490;2024-03-02T05:15:12;95720;;;10.4;60
68628;BME280;55611;48.602;9.490;2024-03-02T05:17:42;95720;;;10.3;60
68628;BME280;55611;48.602;9.490;2024-03-02T05:20:13;95730;;;10.3;60
68628;BME280;55611;48.602;9.490;2024-03-02T05:22:44;95730;;;10.3;60
68628;BME280;55611;48.602;9.490;2024-03-02T05:25:14;95730;;;10.3;60
68628;BME280;55611;48.602;9.490;2024-03-02T05:27:45;95730;;;10.3;60
68628;BME280;55611;48.602;9.490;2024-03-02T05:30:16;95730;;;10.3;60
68628;BME280;55611;48.602;9.490;2024-03-02T05:35:17;95730;;;10.2;60
68628;BME280;55611;48.602;9.490;2024-03-02T05:37:48;95720;;;10.2;60
68628;BME280;55611;48.602;9.490;2024-03-02T05:40:19;95720;;;10.1;60
68628;BME280;55611;48.602;9.490;2024-03-02T05:42:50;95720;;;10.1;60
68628;BME280;55611;48.602;9.490;2024-03-02T05:45:21;95720;;;10.2;60
68628;BME280;55611;48.602;9.490;2024-03-02T05:47:51;95720;;;10.1;60
68628;BME280;55611;48.602;9.490;2024-03-02T05:50:22;95710;;;10.1;60
68628;BME280;55611;48.602;9.490;2024-03-02T05:52:53;95710;;;10.2;60
68628;BME280;55611;48.602;9.490;2024-03-02T05:55:24;95720;;;10.2;60
68628;BME280;55611;48.602;9.490;2024-03-02T05:57:54;95720;;;10.2;60
68628;BME280;55611;48.602;9.490;2024-03-02T06:00:25;95720;;;10.2;60.5
68628;BME280;55611;48.602;9.490;2024-03-02T06:02:56;95720;;;10.2;60
68628;BME280;55611;48.602;9.490;2024-03-02T06:07:58;95730;;;10.3;60.5
68628;BME280;55611;48.602;9.490;2024-03-02T06:10:28;95730;;;10.3;60.5
68628;BME280;55611;48.602;9.490;2024-03-02T06:12:59;95730;;;10.2;60.5
68628;BME280;55611;48.602;9.490;2024-03-02T06:15:30;95730;;;10.2;60.5
68628;BME280;55611;48.602;9.490;2024-03-02T06:18:01;95740;;;10.2;60.5
68628;BME280;55611;48.602;9.490;2024-03-02T06:20:31;95740;;;10.2;60.5
68628;BME280;55611;48.602;9.490;2024-03-02T06:23:03;95730;;;10.2;60.5
68628;BME280;55611;48.602;9.490;2024-03-02T06:25:33;95730;;;10.2;60.5
68628;BME280;55611;48.602;9.490;2024-03-02T06:28:04;95740;;;10.2;60.5
68628;BME280;55611;48.602;9.490;2024-03-02T06:30:34;95740;;;10.2;60.5
68628;BME280;55611;48.602;9.490;2024-03-02T06:35:36;95750;;;10.2;60.5
68628;BME280;55611;48.602;9.490;2024-03-02T06:38:07;95760;;;10.2;60.5
68628;BME280;55611;48.602;9.490;2024-03-02T06:40:38;95760;;;10.2;60.5
68628;BME280;55611;48.602;9.490;2024-03-02T06:43:08;95760;;;10.2;60.5
68628;BME280;55611;48.602;9.490;2024-03-02T06:45:39;95760;;;10.2;60
68628;BME280;55611;48.602;9.490;2024-03-02T06:48:10;95760;;;10.2;60
68628;BME280;55611;48.602;9.490;2024-03-02T06:50:41;95750;;;10.2;60
68628;BME280;55611;48.602;9.490;2024-03-02T06:55:43;95750;;;10.2;60.5
68628;BME280;55611;48.602;9.490;2024-03-02T06:58:13;95750;;;10.2;60.5
68628;BME280;55611;48.602;9.490;2024-03-02T07:00:44;95750;;;10.2;60.5
68628;BME280;55611;48.602;9.490;2024-03-02T07:03:15;95750;;;10.2;60.5
68628;BME280;55611;48.602;9.490;2024-03-02T07:05:45;95750;;;10.2;60.5
68628;BME280;55611;48.602;9.490;2024-03-02T07:08:16;95750;;;10.3;60.5
68628;BME280;55611;48.602;9.490;2024-03-02T07:10:47;95750;;;10.3;60.5
68628;BME280;55611;48.602;9.490;2024-03-02T07:13:18;95760;;;10.4;60.5
68628;BME280;55611;48.602;9.490;2024-03-02T07:15:48;95760;;;10.4;60.5
68628;BME280;55611;48.602;9.490;2024-03-02T07:18:19;95760;;;10.5;60.5
68628;BME280;55611;48.602;9.490;2024-03-02T07:20:50;95760;;;10.5;60.5
68628;BME280;55611;48.602;9.490;2024-03-02T07:23:21;95760;;;10.6;60.5
68628;BME280;55611;48.602;9.490;2024-03-02T07:25:52;95770;;;10.6;60.5
68628;BME280;55611;48.602;9.490;2024-03-02T07:28:23;95760;;;10.6;60.5
68628;BME280;55611;48.602;9.490;2024-03-02T07:31:00;95760;;;10.5;60.5
68628;BME280;55611;48.602;9.490;2024-03-02T07:33:24;95760;;;10.4;60.5
68628;BME280;55611;48.602;9.490;2024-03-02T07:35:55;95770;;;10.3;60.5
68628;BME280;55611;48.602;9.490;2024-03-02T07:38:25;95770;;;10.3;60.5
68628;BME280;55611;48.602;9.490;2024-03-02T07:40:56;95770;;;10.2;60.5
68628;BME280;55611;48.602;9.490;2024-03-02T07:43:27;95770;;;10.1;60.5
68628;BME280;55611;48.602;9.490;2024-03-02T07:45:58;95770;;;10.1;60.5
68628;BME280;55611;48.602;9.490;2024-03-02T07:48:28;95760;;;10.2;60.5
68628;BME280;55611;48.602;9.490;2024-03-02T07:50:59;95760;;;10.4;60.5
68628;BME280;55611;48.602;9.490;2024-03-02T07:53:30;95760;;;10.5;60.5
68628;BME280;55611;48.602;9.490;2024-03-02T07:56:01;95760;;;10.7;60.5
68628;BME280;55611;48.602;9.490;2024-03-02T07:58:32;95760;;;11;61
68628;BME280;55611;48.602;9.490;2024-03-02T08:01:02;95770;;;11.3;61
68628;BME280;55611;48.602;9.490;2024-03-02T08:03:33;95770;;;11.6;61
68628;BME280;55611;48.602;9.490;2024-03-02T08:06:04;95770;;;11.8;61
68628;BME280;55611;48.602;9.490;2024-03-02T08:08:35;95760;;;12;61
68628;BME280;55611;48.602;9.490;2024-03-02T08:11:06;95760;;;12.2;61
68628;BME280;55611;48.602;9.490;2024-03-02T08:13:36;95760;;;12.4;61
68628;BME280;55611;48.602;9.490;2024-03-02T08:16:07;95770;;;12.5;61
68628;BME280;55611;48.602;9.490;2024-03-02T08:18:38;95770;;;12.5;61
68628;BME280;55611;48.602;9.490;2024-03-02T08:21:09;95760;;;12.4;61
68628;BME280;55611;48.602;9.490;2024-03-02T08:23:40;95770;;;12.4;61
68628;BME280;55611;48.602;9.490;2024-03-02T08:26:10;95760;;;12.5;61
68628;BME280;55611;48.602;9.490;2024-03-02T08:28:41;95750;;;12.7;61
68628;BME280;55611;48.602;9.490;2024-03-02T08:31:12;95760;;;12.8;61
68628;BME280;55611;48.602;9.490;2024-03-02T08:33:42;95760;;;12.9;61
68628;BME280;55611;48.602;9.490;2024-03-02T08:36:13;95760;;;12.9;61
68628;BME280;55611;48.602;9.490;2024-03-02T08:38:44;95770;;;12.9;60.5
68628;BME280;55611;48.602;9.490;2024-03-02T08:41:15;95770;;;12.9;60.5
68628;BME280;55611;48.602;9.490;2024-03-02T08:43:45;95760;;;12.9;60.5
68628;BME280;55611;48.602;9.490;2024-03-02T08:46:16;95760;;;12.8;60.5
68628;BME280;55611;48.602;9.490;2024-03-02T08:48:47;95760;;;12.7;60.5
68628;BME280;55611;48.602;9.490;2024-03-02T08:51:18;95750;;;12.7;60.5
68628;BME280;55611;48.602;9.490;2024-03-02T08:53:49;95750;;;12.7;60.5
68628;BME280;55611;48.602;9.490;2024-03-02T08:56:19;95750;;;12.7;60.5
68628;BME280;55611;48.602;9.490;2024-03-02T08:58:51;95740;;;12.7;60.5
68628;BME280;55611;48.602;9.490;2024-03-02T09:01:21;95740;;;12.8;60.5
68628;BME280;55611;48.602;9.490;2024-03-02T09:03:52;95740;;;12.8;60.5
68628;BME280;55611;48.602;9.490;2024-03-02T09:06:22;95740;;;12.9;60.5
68628;BME280;55611;48.602;9.490;2024-03-02T09:08:53;95740;;;12.9;60.5
68628;BME280;55611;48.602;9.490;2024-03-02T09:11:24;95740;;;13.1;60.5
68628;BME280;55611;48.602;9.490;2024-03-02T09:13:55;95740;;;13.1;60.5
68628;BME280;55611;48.602;9.490;2024-03-02T09:16:26;95740;;;13.2;60.5
68628;BME280;55611;48.602;9.490;2024-03-02T09:18:56;95740;;;13.2;60.5
68628;BME280;55611;48.602;9.490;2024-03-02T09:21:27;95740;;;13.2;60.5
68628;BME280;55611;48.602;9.490;2024-03-02T09:23:58;95730;;;13.3;60.5
68628;BME280;55611;48.602;9.490;2024-03-02T09:26:29;95730;;;13.4;60.5
68628;BME280;55611;48.602;9.490;2024-03-02T09:28:59;95730;;;13.5;60.5
68628;BME280;55611;48.602;9.490;2024-03-02T09:31:30;95730;;;13.6;60.5
68628;BME280;55611;48.602;9.490;2024-03-02T09:34:01;95730;;;13.6;60.5
68628;BME280;55611;48.602;9.490;2024-03-02T09:36:32;95730;;;13.6;60.5
68628;BME280;55611;48.602;9.490;2024-03-02T09:39:03;95730;;;13.9;60.5
68628;BME280;55611;48.602;9.490;2024-03-02T09:41:33;95730;;;14;60.5
68628;BME280;55611;48.602;9.490;2024-03-02T09:44:05;95730;;;14.1;60.5
68628;BME280;55611;48.602;9.490;2024-03-02T09:46:35;95730;;;14;60.5
68628;BME280;55611;48.602;9.490;2024-03-02T09:49:06;95730;;;14.1;60.5
68628;BME280;55611;48.602;9.490;2024-03-02T09:51:37;95730;;;14.2;60.5
68628;BME280;55611;48.602;9.490;2024-03-02T09:54:07;95730;;;14.4;60.5
68628;BME280;55611;48.602;9.490;2024-03-02T09:56:38;95730;;;14.4;60.5
68628;BME280;55611;48.602;9.490;2024-03-02T09:59:09;95730;;;14.5;60.5
68628;BME280;55611;48.602;9.490;2024-03-02T10:01:40;95730;;;14.6;60.5
68628;BME280;55611;48.602;9.490;2024-03-02T10:04:10;95730;;;14.6;60.5
68628;BME280;55611;48.602;9.490;2024-03-02T10:06:41;95730;;;14.7;60.5
68628;BME280;55611;48.602;9.490;2024-03-02T10:09:13;95720;;;14.7;60.5
68628;BME280;55611;48.602;9.490;2024-03-02T10:11:43;95720;;;14.8;60.5
68628;BME280;55611;48.602;9.490;2024-03-02T10:14:13;95720;;;14.9;60.5
68628;BME280;55611;48.602;9.490;2024-03-02T10:16:44;95710;;;15.1;60.5
68628;BME280;55611;48.602;9.490;2024-03-02T10:19:16;95710;;;15.1;60.5
68628;BME280;55611;48.602;9.490;2024-03-02T10:21:53;95710;;;15.1;60.5
68628;BME280;55611;48.602;9.490;2024-03-02T10:24:17;95710;;;15.2;60.5
68628;BME280;55611;48.602;9.490;2024-03-02T10:26:48;95710;;;15.2;60.5
68628;BME280;55611;48.602;9.490;2024-03-02T10:29:18;95700;;;15.2;60.5
68628;BME280;55611;48.602;9.490;2024-03-02T10:31:49;95700;;;15.2;60.5
68628;BME280;55611;48.602;9.490;2024-03-02T10:34:20;95700;;;15.2;60.5
68628;BME280;55611;48.602;9.490;2024-03-02T10:36:50;95690;;;15.4;60.5
68628;BME280;55611;48.602;9.490;2024-03-02T10:39:21;95690;;;15.4;60
68628;BME280;55611;48.602;9.490;2024-03-02T10:41:52;95690;;;15.4;60
68628;BME280;55611;48.602;9.490;2024-03-02T10:44:23;95680;;;15.5;60.5
68628;BME280;55611;48.602;9.490;2024-03-02T10:46:53;95680;;;15.6;60.5
68628;BME280;55611;48.602;9.490;2024-03-02T10:49:24;95680;;;15.6;60.5
68628;BME280;55611;48.602;9.490;2024-03-02T10:51:55;95670;;;15.6;60.5
68628;BME280;55611;48.602;9.490;2024-03-02T10:54:26;95670;;;15.7;60.5
68628;BME280;55611;48.602;9.490;2024-03-02T10:56:58;95670;;;15.8;60
68628;BME280;55611;48.602;9.490;2024-03-02T10:59:28;95660;;;15.9;60.5
68628;BME280;55611;48.602;9.490;2024-03-02T11:01:59;95660;;;15.9;60
68628;BME280;55611;48.602;9.490;2024-03-02T11:04:30;95660;;;15.9;60
68628;BME280;55611;48.602;9.490;2024-03-02T11:07:02;95660;;;16;60
68628;BME280;55611;48.602;9.490;2024-03-02T11:09:32;95660;;;16;60.5
68628;BME280;55611;48.602;9.490;2024-03-02T11:12:34;95660;;;16;60.5
68628;BME280;55611;48.602;9.490;2024-03-02T11:14:32;95650;;;16.1;60
68628;BME280;55611;48.602;9.490;2024-03-02T11:17:03;95650;;;16.3;60
68628;BME280;55611;48.602;9.490;2024-03-02T11:19:34;95650;;;16.2;60
68628;BME280;55611;48.602;9.490;2024-03-02T11:22:04;95650;;;16.2;60
68628;BME280;55611;48.602;9.490;2024-03-02T11:24:35;95640;;;16.3;60.5
68628;BME280;55611;48.602;9.490;2024-03-02T11:27:06;95640;;;16.4;60
68628;BME280;55611;48.602;9.490;2024-03-02T11:29:45;95630;;;16.4;60
68628;BME280;55611;48.602;9.490;2024-03-02T11:32:22;95630;;;16.4;60
68628;BME280;55611;48.602;9.490;2024-03-02T11:34:38;95630;;;16.5;60
68628;BME280;55611;48.602;9.490;2024-03-02T11:37:09;95630;;;16.6;60
68628;BME280;55611;48.602;9.490;2024-03-02T11:39:40;95620;;;16.7;60
68628;BME280;55611;48.602;9.490;2024-03-02T11:42:11;95620;;;16.6;60
68628;BME280;55611;48.602;9.490;2024-03-02T11:44:42;95610;;;16.7;60
68628;BME280;55611;48.602;9.490;2024-03-02T11:47:13;95610;;;16.7;60
68628;BME280;55611;48.602;9.490;2024-03-02T11:49:44;95600;;;16.7;60
68628;BME280;55611;48.602;9.490;2024-03-02T11:52:14;95600;;;16.8;60
68628;BME280;55611;48.602;9.490;2024-03-02T11:54:45;95590;;;16.8;60
68628;BME280;55611;48.602;9.490;2024-03-02T11:57:17;95580;;;16.8;60
68628;BME280;55611;48.602;9.490;2024-03-02T11:59:46;95580;;;16.8;60
68628;BME280;55611;48.602;9.490;2024-03-02T12:02:17;95570;;;16.8;60
68628;BME280;55611;48.602;9.490;2024-03-02T12:04:48;95570;;;16.9;60
68628;BME280;55611;48.602;9.490;2024-03-02T12:07:19;95570;;;16.9;60
68628;BME280;55611;48.602;9.490;2024-03-02T12:09:49;95560;;;16.9;60
68628;BME280;55611;48.602;9.490;2024-03-02T12:12:20;95560;;;16.9;60
68628;BME280;55611;48.602;9.490;2024-03-02T12:14:51;95560;;;16.8;60
68628;BME280;55611;48.602;9.490;2024-03-02T12:17:22;95560;;;16.8;60
68628;BME280;55611;48.602;9.490;2024-03-02T12:19:52;95560;;;16.9;60
68628;BME280;55611;48.602;9.490;2024-03-02T12:22:23;95560;;;16.8;60
68628;BME280;55611;48.602;9.490;2024-03-02T12:24:54;95560;;;16.8;60
68628;BME280;55611;48.602;9.490;2024-03-02T12:27:25;95560;;;16.8;60
68628;BME280;55611;48.602;9.490;2024-03-02T12:29:55;95550;;;16.8;60
68628;BME280;55611;48.602;9.490;2024-03-02T12:32:26;95550;;;16.7;60
68628;BME280;55611;48.602;9.490;2024-03-02T12:34:57;95540;;;16.8;60
68628;BME280;55611;48.602;9.490;2024-03-02T12:37:28;95540;;;16.9;60
68628;BME280;55611;48.602;9.490;2024-03-02T12:39:59;95540;;;16.9;60
68628;BME280;55611;48.602;9.490;2024-03-02T12:42:29;95530;;;16.9;60
68628;BME280;55611;48.602;9.490;2024-03-02T12:45:00;95530;;;16.9;60
68628;BME280;55611;48.602;9.490;2024-03-02T12:47:31;95530;;;17;60
68628;BME280;55611;48.602;9.490;2024-03-02T12:50:02;95530;;;16.9;60
68628;BME280;55611;48.602;9.490;2024-03-02T12:52:32;95530;;;16.9;60
68628;BME280;55611;48.602;9.490;2024-03-02T12:55:04;95530;;;17;60
68628;BME280;55611;48.602;9.490;2024-03-02T12:57:34;95530;;;17;60
68628;BME280;55611;48.602;9.490;2024-03-02T13:00:05;95530;;;17;60
68628;BME280;55611;48.602;9.490;2024-03-02T13:02:36;95530;;;17;60
68628;BME280;55611;48.602;9.490;2024-03-02T13:05:06;95520;;;17;59.5
68628;BME280;55611;48.602;9.490;2024-03-02T13:07:37;95520;;;17;59.5
68628;BME280;55611;48.602;9.490;2024-03-02T13:10:08;95520;;;17;59.5
68628;BME280;55611;48.602;9.490;2024-03-02T13:12:38;95520;;;17;59.5
68628;BME280;55611;48.602;9.490;2024-03-02T13:15:09;95510;;;17;59.5
68628;BME280;55611;48.602;9.490;2024-03-02T13:17:40;95510;;;17.1;59.5
68628;BME280;55611;48.602;9.490;2024-03-02T13:20:11;95510;;;17.1;59.5
68628;BME280;55611;48.602;9.490;2024-03-02T13:22:42;95510;;;17.1;59.5
68628;BME280;55611;48.602;9.490;2024-03-02T13:25:12;95510;;;17.1;59.5
68628;BME280;55611;48.602;9.490;2024-03-02T13:27:43;95510;;;17.1;59.5
68628;BME280;55611;48.602;9.490;2024-03-02T13:30:14;95510;;;17.1;59.5
68628;BME280;55611;48.602;9.490;2024-03-02T13:32:45;95510;;;17.2;59.5
68628;BME280;55611;48.602;9.490;2024-03-02T13:35:15;95500;;;17.2;59.5
68628;BME280;55611;48.602;9.490;2024-03-02T13:37:46;95500;;;17.1;59.5
68628;BME280;55611;48.602;9.490;2024-03-02T13:40:17;95500;;;17.1;59.5
68628;BME280;55611;48.602;9.490;2024-03-02T13:42:48;95500;;;17.1;59.5
68628;BME280;55611;48.602;9.490;2024-03-02T13:45:19;95500;;;17.1;59.5
68628;BME280;55611;48.602;9.490;2024-03-02T13:47:49;95500;;;17;59.5
68628;BME280;55611;48.602;9.490;2024-03-02T13:50:20;95500;;;17;59.5
68628;BME280;55611;48.602;9.490;2024-03-02T13:52:51;95500;;;17.1;59.5
68628;BME280;55611;48.602;9.490;2024-03-02T13:55:22;95500;;;17.1;59.5
68628;BME280;55611;48.602;9.490;2024-03-02T13:57:52;95500;;;17.1;59.5
68628;BME280;55611;48.602;9.490;2024-03-02T14:00:23;95490;;;17.1;59.5
68628;BME280;55611;48.602;9.490;2024-03-02T14:02:54;95490;;;17.1;59.5
68628;BME280;55611;48.602;9.490;2024-03-02T14:05:25;95490;;;17;59.5
68628;BME280;55611;48.602;9.490;2024-03-02T14:07:55;95480;;;17;59.5
68628;BME280;55611;48.602;9.490;2024-03-02T14:10:26;95480;;;17;59.5
68628;BME280;55611;48.602;9.490;2024-03-02T14:12:57;95480;;;16.9;59.5
68628;BME280;55611;48.602;9.490;2024-03-02T14:15:28;95480;;;16.9;59.5
68628;BME280;55611;48.602;9.490;2024-03-02T14:17:59;95480;;;17;59.5
68628;BME280;55611;48.602;9.490;2024-03-02T14:20:29;95480;;;16.9;59.5
68628;BME280;55611;48.602;9.490;2024-03-02T14:23:00;95480;;;16.9;59.5
68628;BME280;55611;48.602;9.490;2024-03-02T14:25:31;95480;;;16.9;59.5
68628;BME280;55611;48.602;9.490;2024-03-02T14:28:02;95480;;;16.9;59.5
68628;BME280;55611;48.602;9.490;2024-03-02T14:30:32;95470;;;16.8;59.5
68628;BME280;55611;48.602;9.490;2024-03-02T14:33:03;95470;;;16.7;59.5
68628;BME280;55611;48.602;9.490;2024-03-02T14:35:34;95470;;;16.7;59.5
68628;BME280;55611;48.602;9.490;2024-03-02T14:38:05;95470;;;16.6;59.5
68628;BME280;55611;48.602;9.490;2024-03-02T14:40:36;95460;;;16.6;59.5
68628;BME280;55611;48.602;9.490;2024-03-02T14:43:06;95460;;;16.6;59.5